Terminal Aerodrome Forecast
Issued by NWS

Home | Current Version | Previous Version | Graphics & Text | Print | Product List | Glossary On
Versions: 1 2 3 4 5 6 7 8 9 10 11 12 13 14 15 16 17 18
000
FTUS43 KABR 252328
TAFATY
TAF
KATY 252328Z 2600/2624 VRB04KT P6SM SKC
     FM260900 09005KT P6SM SCT120
      TEMPO 2609/2612 2SM BR
     FM261700 13014KT P6SM SCT150=

USA.gov is the U.S. government's official web portal to all federal, state and local government web resources and services.